createdAt,value
2018-07-13T00:00:23.404Z,13.06
2018-07-13T00:01:23.293Z,13.06
2018-07-13T00:02:23.294Z,13.03
2018-07-13T00:03:23.499Z,13.06
2018-07-13T00:04:23.380Z,13.02
2018-07-13T00:05:23.390Z,13.06
2018-07-13T00:06:23.407Z,13.08
2018-07-13T00:07:23.405Z,13.01
2018-07-13T00:08:23.564Z,13.08
2018-07-13T00:09:23.423Z,13.01
2018-07-13T00:10:23.441Z,13.08
2018-07-13T00:11:23.444Z,12.98
2018-07-13T00:12:23.454Z,13.05
2018-07-13T00:13:23.521Z,12.99
2018-07-13T00:14:23.437Z,13.03
2018-07-13T00:15:23.444Z,12.87
2018-07-13T00:16:23.453Z,12.99
2018-07-13T00:17:23.462Z,12.87
2018-07-13T00:18:23.584Z,12.87
2018-07-13T00:19:23.476Z,12.95
2018-07-13T00:20:23.489Z,13.01
2018-07-13T00:21:23.511Z,12.94
2018-07-13T00:22:23.517Z,12.99
2018-07-13T00:23:23.531Z,13.03
2018-07-13T00:24:23.634Z,13.08
2018-07-13T00:25:23.552Z,13.06
2018-07-13T00:26:23.537Z,13.01
2018-07-13T00:27:23.579Z,13.06
2018-07-13T00:28:23.577Z,13.03
2018-07-13T00:29:23.680Z,13.02
2018-07-13T00:30:23.605Z,13.05
2018-07-13T00:31:23.604Z,13.03
2018-07-13T00:32:23.613Z,13.09
2018-07-13T00:33:23.632Z,13.17
2018-07-13T00:34:23.736Z,13.17
2018-07-13T00:35:23.644Z,13.13
2018-07-13T00:36:23.656Z,13.19
2018-07-13T00:37:23.677Z,13.19
2018-07-13T00:38:23.682Z,13.17
2018-07-13T00:39:23.830Z,13.12
2018-07-13T00:40:23.697Z,13.19
2018-07-13T00:41:23.709Z,13.21
2018-07-13T00:42:23.713Z,13.23
2018-07-13T00:43:23.744Z,13.27
2018-07-13T00:44:23.860Z,13.12
2018-07-13T00:45:23.755Z,13.19
2018-07-13T00:46:23.762Z,13.12
2018-07-13T00:47:23.788Z,13.23
2018-07-13T00:48:23.771Z,13.19
2018-07-13T00:49:23.907Z,13.26
2018-07-13T00:50:23.809Z,13.23
2018-07-13T00:51:23.937Z,13.20
2018-07-13T00:52:23.828Z,13.24
2018-07-13T00:53:23.831Z,13.21
2018-07-13T00:54:23.941Z,13.21
2018-07-13T00:55:23.857Z,13.21
2018-07-13T00:56:23.881Z,13.24
2018-07-13T00:57:23.880Z,13.21
2018-07-13T00:58:23.894Z,13.30
2018-07-13T00:59:24.002Z,13.27
2018-07-13T01:00:23.923Z,13.31
2018-07-13T01:01:23.909Z,13.26
2018-07-13T01:02:23.976Z,13.26
2018-07-13T01:03:23.935Z,13.28
2018-07-13T01:04:24.178Z,13.19
2018-07-13T01:05:23.966Z,13.28
2018-07-13T01:06:23.985Z,13.27
2018-07-13T01:07:23.979Z,13.21
2018-07-13T01:08:23.987Z,13.20
2018-07-13T01:09:24.098Z,13.19
2018-07-13T01:10:24.023Z,13.19
2018-07-13T01:11:24.022Z,13.21
2018-07-13T01:12:24.048Z,13.23
2018-07-13T01:13:24.048Z,13.16
2018-07-13T01:14:24.171Z,13.16
2018-07-13T01:15:24.058Z,13.06
2018-07-13T01:16:24.130Z,13.05
2018-07-13T01:17:24.106Z,13.03
2018-07-13T01:18:24.147Z,12.98
2018-07-13T01:19:24.265Z,12.93
2018-07-13T01:20:24.124Z,12.84
2018-07-13T01:21:24.132Z,12.78
2018-07-13T01:22:24.159Z,12.76
2018-07-13T01:23:24.155Z,12.80
2018-07-13T01:24:24.274Z,12.75
2018-07-13T01:25:24.171Z,12.75
2018-07-13T01:26:24.187Z,12.69
2018-07-13T01:27:24.207Z,12.68
2018-07-13T01:28:24.214Z,12.69
2018-07-13T01:29:24.227Z,12.69
2018-07-13T01:30:24.393Z,12.73
2018-07-13T01:31:24.255Z,12.61
2018-07-13T01:32:24.264Z,12.72
2018-07-13T01:33:24.247Z,12.58
2018-07-13T01:34:24.286Z,12.58
2018-07-13T01:35:24.379Z,12.68
2018-07-13T01:36:24.302Z,12.65
2018-07-13T01:37:24.322Z,12.62
2018-07-13T01:38:24.358Z,12.69
2018-07-13T01:39:24.339Z,12.57
2018-07-13T01:40:24.494Z,12.58
2018-07-13T01:41:24.331Z,12.62
2018-07-13T01:42:24.353Z,12.50
2018-07-13T01:43:24.364Z,12.48
2018-07-13T01:44:24.388Z,12.50
2018-07-13T01:45:24.529Z,12.51
2018-07-13T01:46:24.381Z,12.47
2018-07-13T01:47:24.403Z,12.45
2018-07-13T01:48:24.421Z,12.50
2018-07-13T01:49:24.428Z,12.51
2018-07-13T01:50:24.595Z,12.51
2018-07-13T01:51:24.433Z,12.51
2018-07-13T01:52:24.448Z,12.48
2018-07-13T01:53:24.457Z,12.44
2018-07-13T01:54:24.482Z,12.45
2018-07-13T01:55:24.629Z,12.39
2018-07-13T01:56:24.490Z,12.40
2018-07-13T01:57:24.515Z,12.44
2018-07-13T01:58:24.507Z,12.51
2018-07-13T01:59:24.518Z,12.48
2018-07-13T02:00:24.674Z,12.53
2018-07-13T02:01:24.565Z,12.53
2018-07-13T02:02:24.561Z,12.48
2018-07-13T02:03:24.561Z,12.53
2018-07-13T02:04:24.575Z,12.54
2018-07-13T02:05:24.694Z,12.48
2018-07-13T02:06:24.613Z,12.51
2018-07-13T02:07:24.623Z,12.40
2018-07-13T02:08:24.630Z,12.47
2018-07-13T02:09:24.636Z,12.50
2018-07-13T02:10:24.794Z,12.37
2018-07-13T02:11:24.647Z,12.40
2018-07-13T02:12:24.661Z,12.37
2018-07-13T02:13:24.682Z,12.39
2018-07-13T02:14:24.674Z,12.47
2018-07-13T02:15:24.834Z,12.36
2018-07-13T02:16:24.686Z,12.40
2018-07-13T02:17:24.715Z,12.36
2018-07-13T02:18:24.719Z,12.35
2018-07-13T02:19:24.728Z,12.28
2018-07-13T02:20:24.887Z,12.18
2018-07-13T02:21:24.740Z,12.20
2018-07-13T02:22:24.771Z,12.25
2018-07-13T02:23:24.767Z,12.15
2018-07-13T02:24:24.833Z,12.08
2018-07-13T02:25:24.944Z,11.96
2018-07-13T02:26:24.813Z,11.91
2018-07-13T02:27:24.818Z,11.70
2018-07-13T02:28:24.825Z,11.73
2018-07-13T02:29:24.837Z,11.65
2018-07-13T02:30:24.933Z,11.59
2018-07-13T02:31:24.849Z,11.51
2018-07-13T02:32:24.853Z,11.49
2018-07-13T02:33:24.862Z,11.43
2018-07-13T02:34:24.878Z,11.40
2018-07-13T02:35:24.994Z,11.45
2018-07-13T02:36:24.906Z,11.34
2018-07-13T02:37:24.927Z,11.27
2018-07-13T02:38:24.917Z,11.25
2018-07-13T02:39:24.925Z,11.16
2018-07-13T02:40:25.049Z,11.10
2018-07-13T02:41:25.006Z,11.08
2018-07-13T02:42:24.971Z,11.05
2018-07-13T02:43:24.963Z,11.02
2018-07-13T02:44:24.980Z,10.95
2018-07-13T02:45:25.092Z,11.00
2018-07-13T02:46:24.978Z,10.94
2018-07-13T02:47:25.000Z,10.90
2018-07-13T02:48:25.024Z,10.90
2018-07-13T02:49:25.015Z,10.75
2018-07-13T02:50:25.139Z,10.80
2018-07-13T02:51:25.062Z,10.76
2018-07-13T02:52:25.045Z,10.75
2018-07-13T02:53:25.060Z,10.67
2018-07-13T02:54:25.074Z,10.64
2018-07-13T02:55:25.168Z,10.58
2018-07-13T02:56:25.088Z,10.48
2018-07-13T02:57:25.091Z,10.45
2018-07-13T02:58:25.101Z,10.51
2018-07-13T02:59:25.116Z,10.36
2018-07-13T03:00:25.232Z,10.39
2018-07-13T03:01:25.146Z,10.31
2018-07-13T03:02:25.147Z,10.36
2018-07-13T03:03:25.165Z,10.30
2018-07-13T03:04:25.187Z,10.41
2018-07-13T03:05:25.191Z,10.41
2018-07-13T03:06:25.328Z,10.34
2018-07-13T03:07:25.184Z,10.39
2018-07-13T03:08:25.201Z,10.25
2018-07-13T03:09:25.192Z,10.23
2018-07-13T03:10:25.227Z,10.23
2018-07-13T03:11:25.328Z,10.24
2018-07-13T03:12:25.225Z,10.33
2018-07-13T03:13:25.229Z,10.21
2018-07-13T03:14:25.252Z,10.12
2018-07-13T03:15:25.266Z,10.09
2018-07-13T03:16:25.386Z,10.15
2018-07-13T03:17:25.300Z,10.23
2018-07-13T03:18:25.284Z,10.25
2018-07-13T03:19:25.297Z,10.28
2018-07-13T03:20:25.308Z,10.28
2018-07-13T03:21:25.419Z,10.24
2018-07-13T03:22:25.325Z,10.25
2018-07-13T03:23:25.328Z,10.18
2018-07-13T03:24:25.339Z,10.20
2018-07-13T03:25:25.336Z,10.18
2018-07-13T03:26:25.503Z,10.09
2018-07-13T03:27:25.361Z,10.09
2018-07-13T03:28:25.383Z,10.15
2018-07-13T03:29:25.378Z,10.10
2018-07-13T03:30:25.403Z,10.07
2018-07-13T03:31:25.485Z,10.02
2018-07-13T03:32:25.408Z,9.99
2018-07-13T03:33:25.404Z,9.91
2018-07-13T03:34:25.436Z,9.92
2018-07-13T03:35:25.440Z,9.91
2018-07-13T03:36:25.543Z,9.84
2018-07-13T03:37:25.458Z,9.82
2018-07-13T03:38:25.489Z,9.80
2018-07-13T03:39:25.487Z,9.69
2018-07-13T03:40:25.481Z,9.69
2018-07-13T03:41:25.576Z,9.81
2018-07-13T03:42:25.512Z,9.80
2018-07-13T03:43:25.510Z,9.76
2018-07-13T03:44:25.526Z,9.88
2018-07-13T03:45:25.522Z,9.81
2018-07-13T03:46:25.620Z,9.82
2018-07-13T03:47:25.656Z,9.91
2018-07-13T03:48:25.582Z,9.90
2018-07-13T03:49:25.554Z,9.87
2018-07-13T03:50:25.564Z,9.85
2018-07-13T03:51:25.678Z,9.77
2018-07-13T03:52:25.580Z,9.74
2018-07-13T03:53:25.600Z,9.70
2018-07-13T03:54:25.600Z,9.77
2018-07-13T03:55:25.609Z,9.66
2018-07-13T03:56:25.704Z,9.69
2018-07-13T03:57:25.622Z,9.58
2018-07-13T03:58:25.632Z,9.69
2018-07-13T03:59:25.639Z,9.64
2018-07-13T04:00:25.659Z,9.70
2018-07-13T04:01:25.750Z,9.70
2018-07-13T04:02:25.656Z,9.63
2018-07-13T04:03:25.685Z,9.63
2018-07-13T04:04:25.672Z,9.63
2018-07-13T04:05:25.737Z,9.54
2018-07-13T04:06:25.818Z,9.66
2018-07-13T04:07:25.702Z,9.54
2018-07-13T04:08:25.711Z,9.49
2018-07-13T04:09:25.728Z,9.54
2018-07-13T04:10:25.718Z,9.49
2018-07-13T04:11:25.888Z,9.59
2018-07-13T04:12:25.747Z,9.63
2018-07-13T04:13:25.744Z,9.64
2018-07-13T04:14:25.756Z,9.64
2018-07-13T04:15:25.785Z,9.59
2018-07-13T04:16:25.887Z,9.58
2018-07-13T04:17:25.791Z,9.67
2018-07-13T04:18:25.812Z,9.62
2018-07-13T04:19:25.792Z,9.55
2018-07-13T04:20:25.799Z,9.59
2018-07-13T04:21:25.915Z,9.52
2018-07-13T04:22:25.822Z,9.54
2018-07-13T04:23:25.833Z,9.51
2018-07-13T04:24:25.853Z,9.54
2018-07-13T04:25:25.843Z,9.48
2018-07-13T04:26:25.965Z,9.51
2018-07-13T04:27:25.874Z,9.56
2018-07-13T04:28:25.887Z,9.40
2018-07-13T04:29:25.902Z,9.45
2018-07-13T04:30:25.889Z,9.47
2018-07-13T04:31:26.015Z,9.40
2018-07-13T04:32:25.957Z,9.44
2018-07-13T04:33:25.929Z,9.44
2018-07-13T04:34:25.926Z,9.44
2018-07-13T04:35:25.955Z,9.39
2018-07-13T04:36:26.034Z,9.45
2018-07-13T04:37:25.953Z,9.42
2018-07-13T04:38:25.964Z,9.39
2018-07-13T04:39:25.980Z,9.54
2018-07-13T04:40:25.967Z,9.45
2018-07-13T04:41:26.086Z,9.45
2018-07-13T04:42:25.993Z,9.52
2018-07-13T04:43:26.009Z,9.39
2018-07-13T04:44:26.016Z,9.45
2018-07-13T04:45:26.005Z,9.42
2018-07-13T04:46:26.140Z,9.36
2018-07-13T04:47:26.059Z,9.42
2018-07-13T04:48:26.046Z,9.36
2018-07-13T04:49:26.077Z,9.36
2018-07-13T04:50:26.065Z,9.27
2018-07-13T04:51:26.154Z,9.39
2018-07-13T04:52:26.088Z,9.37
2018-07-13T04:53:26.077Z,9.27
2018-07-13T04:54:26.091Z,9.34
2018-07-13T04:55:26.118Z,9.36
2018-07-13T04:56:26.200Z,9.37
2018-07-13T04:57:26.125Z,9.34
2018-07-13T04:58:26.124Z,9.48
2018-07-13T04:59:26.196Z,9.39
2018-07-13T05:00:26.166Z,9.36
2018-07-13T05:01:26.256Z,9.37
2018-07-13T05:02:26.158Z,9.31
2018-07-13T05:03:26.167Z,9.29
2018-07-13T05:04:26.161Z,9.37
2018-07-13T05:05:26.180Z,9.44
2018-07-13T05:06:26.305Z,9.47
2018-07-13T05:07:26.197Z,9.48
2018-07-13T05:08:26.197Z,9.45
2018-07-13T05:09:26.209Z,9.40
2018-07-13T05:10:26.225Z,9.40
2018-07-13T05:11:26.330Z,9.42
2018-07-13T05:12:26.249Z,9.39
2018-07-13T05:13:26.257Z,9.40
2018-07-13T05:14:26.271Z,9.40
2018-07-13T05:15:26.279Z,9.44
2018-07-13T05:16:26.387Z,9.31
2018-07-13T05:17:26.283Z,9.34
2018-07-13T05:18:26.289Z,9.36
2018-07-13T05:19:26.314Z,9.31
2018-07-13T05:20:26.308Z,9.31
2018-07-13T05:21:26.498Z,9.16
2018-07-13T05:22:26.316Z,9.08
2018-07-13T05:23:26.327Z,9.09
2018-07-13T05:24:26.325Z,8.93
2018-07-13T05:25:26.340Z,9.00
2018-07-13T05:26:26.468Z,8.96
2018-07-13T05:27:26.367Z,9.05
2018-07-13T05:28:26.371Z,9.09
2018-07-13T05:29:26.360Z,9.15
2018-07-13T05:30:26.394Z,9.15
2018-07-13T05:31:26.401Z,9.26
2018-07-13T05:32:26.507Z,9.40
2018-07-13T05:33:26.393Z,9.31
2018-07-13T05:34:26.405Z,9.45
2018-07-13T05:35:26.422Z,9.44
2018-07-13T05:36:26.429Z,9.54
2018-07-13T05:37:26.431Z,9.59
2018-07-13T05:38:26.646Z,9.62
2018-07-13T05:39:26.462Z,9.66
2018-07-13T05:40:26.471Z,9.74
2018-07-13T05:41:26.485Z,9.84
2018-07-13T05:42:26.464Z,9.88
2018-07-13T05:43:26.586Z,9.88
2018-07-13T05:44:26.508Z,9.92
2018-07-13T05:45:26.507Z,9.97
2018-07-13T05:46:26.527Z,9.99
2018-07-13T05:47:26.524Z,9.94
2018-07-13T05:48:26.621Z,9.90
2018-07-13T05:49:26.552Z,9.84
2018-07-13T05:50:26.543Z,9.90
2018-07-13T05:51:26.542Z,9.97
2018-07-13T05:52:26.553Z,9.97
2018-07-13T05:53:26.657Z,9.91
2018-07-13T05:54:26.600Z,9.95
2018-07-13T05:55:26.595Z,9.88
2018-07-13T05:56:26.592Z,9.85
2018-07-13T05:57:26.621Z,9.82
2018-07-13T05:58:26.712Z,9.88
2018-07-13T05:59:26.632Z,9.85
2018-07-13T06:00:26.634Z,9.72
2018-07-13T06:01:26.636Z,9.73
2018-07-13T06:02:26.647Z,9.76
2018-07-13T06:03:26.766Z,9.67
2018-07-13T06:04:26.654Z,9.64
2018-07-13T06:05:26.659Z,9.70
2018-07-13T06:06:26.681Z,9.62
2018-07-13T06:07:26.702Z,9.64
2018-07-13T06:08:26.785Z,9.70
2018-07-13T06:09:26.704Z,9.70
2018-07-13T06:10:26.719Z,9.74
2018-07-13T06:11:26.721Z,9.74
2018-07-13T06:12:26.740Z,9.66
2018-07-13T06:13:26.878Z,9.70
2018-07-13T06:14:26.731Z,9.64
2018-07-13T06:15:26.752Z,9.63
2018-07-13T06:16:26.749Z,9.62
2018-07-13T06:17:26.764Z,9.58
2018-07-13T06:18:26.878Z,9.51
2018-07-13T06:19:26.785Z,9.58
2018-07-13T06:20:26.797Z,9.52
2018-07-13T06:21:26.799Z,9.52
2018-07-13T06:22:26.820Z,9.51
2018-07-13T06:23:26.920Z,9.49
2018-07-13T06:24:26.821Z,9.44
2018-07-13T06:25:26.831Z,9.40
2018-07-13T06:26:26.964Z,9.37
2018-07-13T06:27:26.863Z,9.37
2018-07-13T06:28:26.954Z,9.40
2018-07-13T06:29:26.865Z,9.29
2018-07-13T06:30:26.878Z,9.27
2018-07-13T06:31:26.904Z,9.22
2018-07-13T06:32:26.904Z,9.16
2018-07-13T06:33:27.000Z,9.13
2018-07-13T06:34:26.920Z,9.16
2018-07-13T06:35:26.932Z,9.12
2018-07-13T06:36:26.931Z,9.15
2018-07-13T06:37:26.938Z,9.15
2018-07-13T06:38:27.035Z,9.11
2018-07-13T06:39:26.961Z,9.12
2018-07-13T06:40:26.963Z,9.08
2018-07-13T06:41:26.964Z,9.13
2018-07-13T06:42:26.979Z,9.13
2018-07-13T06:43:27.066Z,9.13
2018-07-13T06:44:26.995Z,9.21
2018-07-13T06:45:27.009Z,9.15
2018-07-13T06:46:27.001Z,9.12
2018-07-13T06:47:27.030Z,9.16
2018-07-13T06:48:27.010Z,9.16
2018-07-13T06:49:27.174Z,9.18
2018-07-13T06:50:27.069Z,9.21
2018-07-13T06:51:27.033Z,9.15
2018-07-13T06:52:27.037Z,9.11
2018-07-13T06:53:27.060Z,9.15
2018-07-13T06:54:27.169Z,9.15
2018-07-13T06:55:27.075Z,9.08
2018-07-13T06:56:27.073Z,9.02
2018-07-13T06:57:27.098Z,9.08
2018-07-13T06:58:27.103Z,9.05
2018-07-13T06:59:27.208Z,9.13
2018-07-13T07:00:27.117Z,9.24
2018-07-13T07:01:27.121Z,9.27
2018-07-13T07:02:27.138Z,9.33
2018-07-13T07:03:27.139Z,9.34
2018-07-13T07:04:27.148Z,9.39
2018-07-13T07:05:27.255Z,9.42
2018-07-13T07:06:27.158Z,9.42
2018-07-13T07:07:27.159Z,9.44
2018-07-13T07:08:27.175Z,9.40
2018-07-13T07:09:27.193Z,9.44
2018-07-13T07:10:27.309Z,9.51
2018-07-13T07:11:27.206Z,9.54
2018-07-13T07:12:27.207Z,9.47
2018-07-13T07:13:27.229Z,9.45
2018-07-13T07:14:27.268Z,9.42
2018-07-13T07:15:27.341Z,9.44
2018-07-13T07:16:27.247Z,9.47
2018-07-13T07:17:27.242Z,9.48
2018-07-13T07:18:27.261Z,9.51
2018-07-13T07:19:27.266Z,9.59
2018-07-13T07:20:27.260Z,9.55
2018-07-13T07:21:27.387Z,9.54
2018-07-13T07:22:27.303Z,9.58
2018-07-13T07:23:27.296Z,9.59
2018-07-13T07:24:27.362Z,9.64
2018-07-13T07:25:27.299Z,9.66
2018-07-13T07:26:27.468Z,9.66
2018-07-13T07:27:27.350Z,9.73
2018-07-13T07:28:27.351Z,9.76
2018-07-13T07:29:27.361Z,9.74
2018-07-13T07:30:27.476Z,9.87
2018-07-13T07:31:27.483Z,9.90
2018-07-13T07:32:27.474Z,9.97
2018-07-13T07:33:27.386Z,9.97
2018-07-13T07:34:27.386Z,10.05
2018-07-13T07:35:27.390Z,10.06
2018-07-13T07:36:27.395Z,10.10
2018-07-13T07:37:27.410Z,10.17
2018-07-13T07:38:27.615Z,10.24
2018-07-13T07:39:27.415Z,10.27
2018-07-13T07:40:27.450Z,10.34
2018-07-13T07:41:27.447Z,10.38
2018-07-13T07:42:27.499Z,10.43
2018-07-13T07:43:27.565Z,10.38
2018-07-13T07:44:27.468Z,10.41
2018-07-13T07:45:27.465Z,10.46
2018-07-13T07:46:27.493Z,10.51
2018-07-13T07:47:27.508Z,10.49
2018-07-13T07:48:27.505Z,10.51
2018-07-13T07:49:27.607Z,10.45
2018-07-13T07:50:27.510Z,10.53
2018-07-13T07:51:27.543Z,10.67
2018-07-13T07:52:27.549Z,10.59
2018-07-13T07:53:27.540Z,10.67
2018-07-13T07:54:27.657Z,10.64
2018-07-13T07:55:27.554Z,10.62
2018-07-13T07:56:27.695Z,10.64
2018-07-13T07:57:27.660Z,10.71
2018-07-13T07:58:27.638Z,10.67
2018-07-13T07:59:27.715Z,10.80
2018-07-13T08:00:27.609Z,10.65
2018-07-13T08:01:27.631Z,10.71
2018-07-13T08:02:27.637Z,10.79
2018-07-13T08:03:27.757Z,10.76
2018-07-13T08:04:27.653Z,10.80
2018-07-13T08:05:27.762Z,10.77
2018-07-13T08:06:27.720Z,10.76
2018-07-13T08:07:27.750Z,10.80
2018-07-13T08:08:27.690Z,10.72
2018-07-13T08:09:27.690Z,10.75
2018-07-13T08:10:27.804Z,10.79
2018-07-13T08:11:27.719Z,10.69
2018-07-13T08:12:27.706Z,10.80
2018-07-13T08:13:27.768Z,10.80
2018-07-13T08:14:27.825Z,10.79
2018-07-13T08:15:27.843Z,10.82
2018-07-13T08:16:27.769Z,10.68
2018-07-13T08:17:27.789Z,10.71
2018-07-13T08:18:27.766Z,10.77
2018-07-13T08:19:27.793Z,10.68
2018-07-13T08:20:27.896Z,10.71
2018-07-13T08:21:27.802Z,10.71
2018-07-13T08:22:27.819Z,10.69
2018-07-13T08:23:27.861Z,10.69
2018-07-13T08:24:27.837Z,10.69
2018-07-13T08:25:27.940Z,10.76
2018-07-13T08:26:27.853Z,10.65
2018-07-13T08:27:27.849Z,10.76
2018-07-13T08:28:27.868Z,10.72
2018-07-13T08:29:27.875Z,10.71
2018-07-13T08:30:27.969Z,10.71
2018-07-13T08:31:27.888Z,10.71
2018-07-13T08:32:27.908Z,10.72
2018-07-13T08:33:27.903Z,10.76
2018-07-13T08:34:27.925Z,10.71
2018-07-13T08:35:28.021Z,10.64
2018-07-13T08:36:27.939Z,10.77
2018-07-13T08:37:27.951Z,10.75
2018-07-13T08:38:27.953Z,10.69
2018-07-13T08:39:27.981Z,10.71
2018-07-13T08:40:27.952Z,10.76
2018-07-13T08:41:28.128Z,10.83
2018-07-13T08:42:27.990Z,10.83
2018-07-13T08:43:27.999Z,10.79
2018-07-13T08:44:28.016Z,10.76
2018-07-13T08:45:27.997Z,10.80
2018-07-13T08:46:28.157Z,10.76
2018-07-13T08:47:28.070Z,10.75
2018-07-13T08:48:28.049Z,10.72
2018-07-13T08:49:28.037Z,10.77
2018-07-13T08:50:28.093Z,10.69
2018-07-13T08:51:28.286Z,10.68
2018-07-13T08:52:28.072Z,10.79
2018-07-13T08:53:28.101Z,10.80
2018-07-13T08:54:28.083Z,10.75
2018-07-13T08:55:28.113Z,10.68
2018-07-13T08:56:28.303Z,10.80
2018-07-13T08:57:28.118Z,10.72
2018-07-13T08:58:28.140Z,10.82
2018-07-13T08:59:28.136Z,10.79
2018-07-13T09:00:28.146Z,10.77
2018-07-13T09:01:28.310Z,10.77
2018-07-13T09:02:28.157Z,10.77
2018-07-13T09:03:28.169Z,10.84
2018-07-13T09:04:28.188Z,10.77
2018-07-13T09:05:28.191Z,10.83
2018-07-13T09:06:28.393Z,10.82
2018-07-13T09:07:28.265Z,10.77
2018-07-13T09:08:28.228Z,10.80
2018-07-13T09:09:28.228Z,10.77
2018-07-13T09:10:28.359Z,10.86
2018-07-13T09:11:28.390Z,10.83
2018-07-13T09:12:28.242Z,10.77
2018-07-13T09:13:28.294Z,10.83
2018-07-13T09:14:28.284Z,10.86
2018-07-13T09:15:28.336Z,10.76
2018-07-13T09:16:28.292Z,10.76
2018-07-13T09:17:28.404Z,10.79
2018-07-13T09:18:28.311Z,10.80
2018-07-13T09:19:28.325Z,10.83
2018-07-13T09:20:28.337Z,10.90
2018-07-13T09:21:28.340Z,10.79
2018-07-13T09:22:28.505Z,10.79
2018-07-13T09:23:28.361Z,10.82
2018-07-13T09:24:28.362Z,10.83
2018-07-13T09:25:28.367Z,10.84
2018-07-13T09:26:28.383Z,10.79
2018-07-13T09:27:28.591Z,10.82
2018-07-13T09:28:28.413Z,10.80
2018-07-13T09:29:28.424Z,10.82
2018-07-13T09:30:28.424Z,10.80
2018-07-13T09:31:28.437Z,10.80
2018-07-13T09:32:28.543Z,10.75
2018-07-13T09:33:28.452Z,10.77
2018-07-13T09:34:28.488Z,10.77
2018-07-13T09:35:28.464Z,10.79
2018-07-13T09:36:28.474Z,10.77
2018-07-13T09:37:28.634Z,10.82
2018-07-13T09:38:28.572Z,10.77
2018-07-13T09:39:28.509Z,10.71
2018-07-13T09:40:28.526Z,10.76
2018-07-13T09:41:28.536Z,10.79
2018-07-13T09:42:28.686Z,10.71
2018-07-13T09:43:28.546Z,10.77
2018-07-13T09:44:28.589Z,10.71
2018-07-13T09:45:28.565Z,10.84
2018-07-13T09:46:28.641Z,10.75
2018-07-13T09:47:28.699Z,10.79
2018-07-13T09:48:28.592Z,10.77
2018-07-13T09:49:28.583Z,10.75
2018-07-13T09:50:28.635Z,10.84
2018-07-13T09:51:28.613Z,10.77
2018-07-13T09:52:28.777Z,10.76
2018-07-13T09:53:28.640Z,10.86
2018-07-13T09:54:28.650Z,10.79
2018-07-13T09:55:28.654Z,10.76
2018-07-13T09:56:28.671Z,10.75
2018-07-13T09:57:28.820Z,10.71
2018-07-13T09:58:28.683Z,10.72
2018-07-13T09:59:28.675Z,10.61
2018-07-13T10:00:28.735Z,10.64
2018-07-13T10:01:28.707Z,10.62
2018-07-13T10:02:28.797Z,10.61
2018-07-13T10:03:28.770Z,10.65
2018-07-13T10:04:28.735Z,10.61
2018-07-13T10:05:28.731Z,10.64
2018-07-13T10:06:28.735Z,10.65
2018-07-13T10:07:28.919Z,10.64
2018-07-13T10:08:28.773Z,10.69
2018-07-13T10:09:28.776Z,10.75
2018-07-13T10:10:28.792Z,10.69
2018-07-13T10:11:28.792Z,10.77
2018-07-13T10:12:28.997Z,10.72
2018-07-13T10:13:28.885Z,10.72
2018-07-13T10:14:28.826Z,10.75
2018-07-13T10:15:28.848Z,10.71
2018-07-13T10:16:28.826Z,10.72
2018-07-13T10:17:28.996Z,10.71
2018-07-13T10:18:28.869Z,10.71
2018-07-13T10:19:28.869Z,10.75
2018-07-13T10:20:28.881Z,10.69
2018-07-13T10:21:28.896Z,10.79
2018-07-13T10:22:29.056Z,10.80
2018-07-13T10:23:28.919Z,10.82
2018-07-13T10:24:28.911Z,10.82
2018-07-13T10:25:28.919Z,10.80
2018-07-13T10:26:28.942Z,10.68
2018-07-13T10:27:29.074Z,10.75
2018-07-13T10:28:28.946Z,10.83
2018-07-13T10:29:28.992Z,10.80
2018-07-13T10:30:28.964Z,10.77
2018-07-13T10:31:28.969Z,10.79
2018-07-13T10:32:29.137Z,10.86
2018-07-13T10:33:29.025Z,10.84
2018-07-13T10:34:28.996Z,10.75
2018-07-13T10:35:29.013Z,10.77
2018-07-13T10:36:29.027Z,10.77
2018-07-13T10:37:29.187Z,10.80
2018-07-13T10:38:29.077Z,10.84
2018-07-13T10:39:29.049Z,10.82
2018-07-13T10:40:29.102Z,10.84
2018-07-13T10:41:29.066Z,10.83
2018-07-13T10:42:29.228Z,10.84
2018-07-13T10:43:29.109Z,10.86
2018-07-13T10:44:29.108Z,10.92
2018-07-13T10:45:29.112Z,10.90
2018-07-13T10:46:29.114Z,10.98
2018-07-13T10:47:29.275Z,10.95
2018-07-13T10:48:29.146Z,10.95
2018-07-13T10:49:29.155Z,10.97
2018-07-13T10:50:29.145Z,11.00
2018-07-13T10:51:29.156Z,11.01
2018-07-13T10:52:29.370Z,11.13
2018-07-13T10:53:29.189Z,11.12
2018-07-13T10:54:29.190Z,11.15
2018-07-13T10:55:29.191Z,11.20
2018-07-13T10:56:29.224Z,11.30
2018-07-13T10:57:29.418Z,11.34
2018-07-13T10:58:29.239Z,11.30
2018-07-13T10:59:29.241Z,11.41
2018-07-13T11:00:29.259Z,11.51
2018-07-13T11:01:29.291Z,11.65
2018-07-13T11:02:29.359Z,11.68
2018-07-13T11:03:29.280Z,11.85
2018-07-13T11:04:29.307Z,11.95
2018-07-13T11:05:29.301Z,12.21
2018-07-13T11:06:29.317Z,12.32
2018-07-13T11:07:29.420Z,12.57
2018-07-13T11:08:29.336Z,12.86
2018-07-13T11:09:29.340Z,13.12
2018-07-13T11:10:29.361Z,13.50
2018-07-13T11:11:29.380Z,13.70
2018-07-13T11:12:29.470Z,13.91
2018-07-13T11:13:29.383Z,14.13
2018-07-13T11:14:29.401Z,14.26
2018-07-13T11:15:29.407Z,14.53
2018-07-13T11:16:29.419Z,14.78
2018-07-13T11:17:29.579Z,14.93
2018-07-13T11:18:29.453Z,15.04
2018-07-13T11:19:29.451Z,15.29
2018-07-13T11:20:29.471Z,15.39
2018-07-13T11:21:29.485Z,15.67
2018-07-13T11:22:29.657Z,15.85
2018-07-13T11:23:29.492Z,16.16
2018-07-13T11:24:29.535Z,16.32
2018-07-13T11:25:29.544Z,16.43
2018-07-13T11:26:29.547Z,16.50
2018-07-13T11:27:29.717Z,16.46
2018-07-13T11:28:29.563Z,16.66
2018-07-13T11:29:29.599Z,16.89
2018-07-13T11:30:29.604Z,17.01
2018-07-13T11:31:29.654Z,17.07
2018-07-13T11:32:29.834Z,17.22
2018-07-13T11:33:29.646Z,17.27
2018-07-13T11:34:29.678Z,17.32
2018-07-13T11:35:29.679Z,17.34
2018-07-13T11:36:29.703Z,17.38
2018-07-13T11:37:29.855Z,17.39
2018-07-13T11:38:29.706Z,17.47
2018-07-13T11:39:29.730Z,17.60
2018-07-13T11:40:29.800Z,17.80
2018-07-13T11:41:29.775Z,17.86
2018-07-13T11:42:29.977Z,18.15
2018-07-13T11:43:29.821Z,18.26
2018-07-13T11:44:29.797Z,18.49
2018-07-13T11:45:29.816Z,18.73
2018-07-13T11:46:29.855Z,18.85
2018-07-13T11:47:29.967Z,19.12
2018-07-13T11:48:29.869Z,19.23
2018-07-13T11:49:29.898Z,19.37
2018-07-13T11:50:29.908Z,19.63
2018-07-13T11:51:29.935Z,19.72
2018-07-13T11:52:30.081Z,20.02
2018-07-13T11:53:29.957Z,20.11
2018-07-13T11:54:29.983Z,20.10
2018-07-13T11:56:30.000Z,20.36
2018-07-13T11:57:30.169Z,20.58
2018-07-13T11:58:30.046Z,20.68
2018-07-13T11:59:30.049Z,20.80
2018-07-13T12:00:30.128Z,20.92
2018-07-13T12:01:30.092Z,20.90
2018-07-13T12:02:30.209Z,20.85
2018-07-13T12:03:30.129Z,20.92
2018-07-13T12:04:30.159Z,20.93
2018-07-13T12:05:30.149Z,20.86
2018-07-13T12:06:30.173Z,20.74
2018-07-13T12:07:30.261Z,20.86
2018-07-13T12:08:30.363Z,20.90
2018-07-13T12:09:30.213Z,20.95
2018-07-13T12:10:30.229Z,20.90
2018-07-13T12:11:30.257Z,20.83
2018-07-13T12:12:30.317Z,21.00
2018-07-13T12:13:30.295Z,20.90
2018-07-13T12:14:30.465Z,20.88
2018-07-13T12:15:30.321Z,20.82
2018-07-13T12:16:30.340Z,20.86
2018-07-13T12:17:30.469Z,20.92
2018-07-13T12:18:30.373Z,20.89
2018-07-13T12:19:30.543Z,20.88
2018-07-13T12:20:30.412Z,20.93
2018-07-13T12:21:30.415Z,20.92
2018-07-13T12:22:30.435Z,20.90
2018-07-13T12:23:30.444Z,20.93
2018-07-13T12:24:30.681Z,20.86
2018-07-13T12:25:30.486Z,20.88
2018-07-13T12:26:30.501Z,20.68
2018-07-13T12:27:30.545Z,20.56
2018-07-13T12:28:30.541Z,20.32
2018-07-13T12:29:30.697Z,20.08
2018-07-13T12:30:30.590Z,20.04
2018-07-13T12:31:30.573Z,19.82
2018-07-13T12:32:30.674Z,19.81
2018-07-13T12:33:30.610Z,19.62
2018-07-13T12:34:30.784Z,19.45
2018-07-13T12:35:30.691Z,19.52
2018-07-13T12:36:30.665Z,19.52
2018-07-13T12:37:30.685Z,19.53
2018-07-13T12:38:30.699Z,19.59
2018-07-13T12:39:30.855Z,19.47
2018-07-13T12:40:30.721Z,19.55
2018-07-13T12:41:30.734Z,19.48
2018-07-13T12:42:30.759Z,19.42
2018-07-13T12:43:30.789Z,19.30
2018-07-13T12:44:30.962Z,19.24
2018-07-13T12:45:30.804Z,19.09
2018-07-13T12:46:30.837Z,18.94
2018-07-13T12:47:30.861Z,18.55
2018-07-13T12:48:30.903Z,18.45
2018-07-13T12:49:30.964Z,18.52
2018-07-13T12:50:30.895Z,18.52
2018-07-13T12:51:30.915Z,18.66
2018-07-13T12:52:30.932Z,18.78
2018-07-13T12:53:30.922Z,18.73
2018-07-13T12:54:31.129Z,18.61
2018-07-13T12:55:30.978Z,18.37
2018-07-13T12:56:30.994Z,18.33
2018-07-13T12:57:31.002Z,18.36
2018-07-13T12:58:31.009Z,18.41
2018-07-13T12:59:31.195Z,18.51
2018-07-13T13:00:31.051Z,18.45
2018-07-13T13:01:31.069Z,18.42